Observations for EAST MIDLANDS, United Kingdom (EGNX)

EGNX 250350Z 28008KT CAVOK M00/M01 Q1012
EGNX 250320Z 27007KT CAVOK 01/M01 Q1012 
EGNX 250250Z 28006KT CAVOK 01/M01 Q1012 
EGNX 250220Z 24008KT CAVOK 02/00 Q1012  
EGNX 250150Z 25008KT 9999 FEW032 02/01 Q1012
EGNX 250120Z 27009KT 9999 FEW033 02/00 Q1011
EGNX 250050Z 25008KT CAVOK 02/00 Q1011  
EGNX 250020Z 24009KT CAVOK 03/01 Q1011  
EGNX 242350Z 24009KT CAVOK 03/01 Q1011  
EGNX 242320Z 24009KT CAVOK 03/01 Q1011  
EGNX 242250Z 24008KT 9999 FEW030 03/01 Q1012
EGNX 242220Z 23009KT 9999 SCT028 02/00 Q1012
EGNX 242150Z 23008KT 9999 SCT029 03/00 Q1011
EGNX 242120Z 23009KT 9999 FEW038 03/00 Q1011
EGNX 242050Z 22008KT 9999 FEW041 03/M00 Q1011   
EGNX 242020Z 21009KT CAVOK 03/00 Q1011  
EGNX 241950Z 21011KT CAVOK 03/00 Q1011  
EGNX 241920Z 21009KT CAVOK 03/00 Q1011  
EGNX 241850Z 21008KT CAVOK 03/M00 Q1011 
EGNX 241820Z 21009KT CAVOK 03/M00 Q1011 
EGNX 241750Z 20007KT CAVOK 04/M00 Q1011 
EGNX 241720Z 21007KT CAVOK 05/M00 Q1011 
EGNX 241650Z 21008KT CAVOK 04/M00 Q1011 
EGNX 241620Z 22006KT CAVOK 05/00 Q1011  
EGNX 241550Z 21006KT CAVOK 06/00 Q1011  
EGNX 241520Z 23007KT CAVOK 06/M00 Q1011 
EGNX 241450Z 25011KT CAVOK 07/M00 Q1011 
EGNX 241350Z 24010KT CAVOK 07/00 Q1011  
EGNX 241320Z 24008KT CAVOK 07/01 Q1011  
EGNX 241250Z 25008KT CAVOK 07/01 Q1011  
EGNX 241220Z 26008KT CAVOK 06/01 Q1011  
EGNX 241150Z 26007KT CAVOK 06/01 Q1011  
EGNX 241120Z 26007KT CAVOK 05/01 Q1011  
EGNX 241050Z 22007KT CAVOK 05/01 Q1010  
EGNX 241020Z 22006KT CAVOK 04/01 Q1010  
EGNX 240950Z 22008KT CAVOK 04/01 Q1010  
EGNX 240920Z 24006KT CAVOK 03/00 Q1010  
EGNX 240850Z 22005KT CAVOK 02/M00 Q1010 
EGNX 240820Z 25007KT CAVOK 01/M00 Q1009 
EGNX 240750Z 24006KT CAVOK 01/M01 Q1009 
EGNX 240720Z 24007KT CAVOK 02/M00 Q1008 
EGNX 240620Z 22006KT CAVOK 03/00 Q1008  
EGNX 240550Z 25007KT CAVOK 02/00 Q1007  
EGNX 240520Z 27007KT CAVOK 04/01 Q1007  
EGNX 240450Z 26007KT CAVOK 04/01 Q1007  
EGNX 240420Z 26009KT CAVOK 04/01 Q1006  
EGNX 240350Z 25009KT CAVOK 04/01 Q1006  
EGNX 240320Z 27007KT CAVOK 04/02 Q1006  
EGNX 240250Z 22005KT CAVOK 04/02 Q1006